Flight Track Log - Related Links

Times and Time Zones

All times are in EDT time to prevent confusion due to time zone crossing. See the UAL4093 flight status page for this flight to view local times or setup timezone preferences in your user account.

Time Position Orientation Groundspeed Altitude Reporting Facility
EDT Latitude Longitude Course Direction KTS MPH feet Rate Location/Type
Mon 06:42:07 PM 39.0500 -84.6833 North 169 194 1,500  Level Cincinnati TRACON
Mon 06:43:19 PM 39.0500 -84.7833 270° West 225 259 3,600 2,045 Climbing Cincinnati TRACON
Mon 06:44:19 PM 39.0500 -84.8667 270° West 260 299 6,000 2,368 Climbing Cincinnati TRACON
Mon 06:44:35 PM 39.0617 -84.8917 301° West 255 293 6,600 2,385 Climbing Indianapolis Center
Mon 06:45:00 PM 39.1072 -84.4000 North  Level FlightAware Approximate
Mon 06:45:37 PM 39.1361 -84.8878 North 277 319 9,100  Level Indianapolis Center
Mon 06:46:00 PM 39.2069 -84.4000 North  Level FlightAware Approximate
Mon 06:46:39 PM 39.2158 -84.8514 19° North 301 346 10,500  Level Indianapolis Center
Mon 06:47:00 PM 39.3066 -84.4000 North  Level FlightAware Approximate
Mon 06:47:41 PM 39.2825 -84.7622 46° Northeast 337 388 11,800  Level Indianapolis Center
Mon 06:48:43 PM 39.3531 -84.6717 45° Northeast 349 402 13,500 1,403 Climbing Indianapolis Center
Mon 06:49:45 PM 39.4331 -84.5964 36° Northeast 350 403 14,700 1,258 Climbing Indianapolis Center
Mon 06:50:47 PM 39.5219 -84.5242 32° Northeast 366 421 16,100 1,210 Climbing Indianapolis Center
Mon 06:51:49 PM 39.6108 -84.4483 33° Northeast 377 434 17,200 1,161 Climbing Indianapolis Center
Mon 06:52:51 PM 39.7172 -84.3603 32° Northeast 383 441 18,500 1,161 Climbing Indianapolis Center
Mon 06:53:53 PM 39.8061 -84.2772 36° Northeast 390 449 19,600 1,161 Climbing Indianapolis Center
Mon 06:54:55 PM 39.8847 -84.1736 45° Northeast 398 458 20,900 1,065 Climbing Indianapolis Center
Mon 06:55:57 PM 39.9647 -84.0683 45° Northeast 402 463 21,800 871 Climbing Indianapolis Center
Mon 06:56:59 PM 40.0458 -83.9597 46° Northeast 409 471 22,700 871 Climbing Indianapolis Center
Mon 06:58:01 PM 40.1292 -83.8503 45° Northeast 416 479 23,600 919 Climbing Indianapolis Center
Mon 06:59:03 PM 40.2114 -83.7392 46° Northeast 417 480 24,600 1,065 Climbing Indianapolis Center
Mon 07:00:05 PM 40.2933 -83.6294 46° Northeast 417 480 25,800 1,268 Climbing Indianapolis Center
Mon 07:01:06 PM 40.3731 -83.5217 46° Northeast 411 473 27,200 1,415 Climbing Indianapolis Center
Mon 07:02:08 PM 40.4500 -83.4175 46° Northeast 401 461 28,700 1,548 Climbing Indianapolis Center
Mon 07:03:10 PM 40.5375 -83.2989 46° Northeast 386 444 30,400 1,403 Climbing Indianapolis Center
Mon 07:04:12 PM 40.6108 -83.1992 46° Northeast 378 435 31,600 1,065 Climbing Indianapolis Center
Mon 07:05:14 PM 40.6847 -83.0972 46° Northeast 385 443 32,600 677 Climbing Indianapolis Center
Mon 07:06:16 PM 40.7625 -82.9919 46° Northeast 396 456 33,000 183 Climbing Indianapolis Center
Mon 07:07:25 PM 40.8597 -82.8536 47° Northeast 408 470 33,000  Level Cleveland Center
Mon 07:08:25 PM 40.9475 -82.7356 45° Northeast 433 498 33,000  Level Cleveland Center
Mon 07:09:25 PM 41.0372 -82.6147 45° Northeast 444 511 33,000  Level Cleveland Center
Mon 07:10:25 PM 41.1228 -82.4933 47° Northeast 444 511 33,000  Level Cleveland Center
Mon 07:11:25 PM 41.2081 -82.3744 46° Northeast 444 511 33,000  Level Cleveland Center
Mon 07:12:25 PM 41.2825 -82.2658 48° Northeast 444 511 33,000  Level Cleveland Center
Mon 07:13:25 PM 41.3614 -82.1406 50° Northeast 444 511 33,000 150 Level Cleveland Center
Mon 07:14:25 PM 41.4094 -81.9894 67° East 439 505 33,300 550 Climbing Cleveland Center
Mon 07:15:25 PM 41.4528 -81.8353 69° East 434 499 34,100 800 Climbing Cleveland Center
Mon 07:16:25 PM 41.4983 -81.6728 69° East 434 499 34,900 450 Climbing Cleveland Center
Mon 07:17:25 PM 41.5414 -81.5208 69° East 429 494 35,000 50 Climbing Cleveland Center
Mon 07:18:25 PM 41.5861 -81.3658 69° East 429 494 35,000  Level Cleveland Center
Mon 07:19:25 PM 41.6311 -81.2028 70° East 455 524 35,000  Level Cleveland Center
Mon 07:20:25 PM 41.6756 -81.0392 70° East 464 534 35,000  Level Cleveland Center
Mon 07:21:25 PM 41.7242 -80.8697 69° East 471 542 35,000  Level Cleveland Center
Mon 07:22:25 PM 41.7639 -80.7222 70° East 471 542 35,000  Level Cleveland Center
Mon 07:23:25 PM 41.7953 -80.5525 76° East 466 536 35,000  Level Cleveland Center
Mon 07:24:25 PM 41.7806 -80.3828 97° East 454 522 35,000  Level Cleveland Center
Mon 07:25:25 PM 41.7633 -80.2100 98° East 459 528 35,000  Level Cleveland Center
Mon 07:26:25 PM 41.7439 -80.0406 99° East 463 533 35,000  Level Cleveland Center
Mon 07:27:25 PM 41.7264 -79.8708 98° East 463 533 35,000  Level Cleveland Center
Mon 07:28:25 PM 41.7083 -79.6819 97° East 463 533 35,000  Level Cleveland Center
Mon 07:29:25 PM 41.6925 -79.5319 98° East 463 533 35,000  Level Cleveland Center
Mon 07:30:25 PM 41.6742 -79.3628 98° East 463 533 35,000  Level Cleveland Center
Mon 07:31:25 PM 41.6556 -79.1881 98° East 468 539 35,000  Level Cleveland Center
Mon 07:32:25 PM 41.6344 -79.0189 99° East 468 539 35,000  Level Cleveland Center
Mon 07:33:25 PM 41.6175 -78.8500 98° East 468 539 35,000  Level Cleveland Center
Mon 07:35:04 PM 41.5828 -78.5561 99° East 474 545 35,000 -150 Level New York Center
Mon 07:36:05 PM 41.5647 -78.3878 98° East 467 537 34,600 -1,091 Descending New York Center
Mon 07:37:05 PM 41.5422 -78.2161 100° East 467 537 32,800 -1,678 Descending New York Center
Mon 07:38:03 PM 41.5214 -78.0475 99° East 467 537 31,300 -915 Descending New York Center
Mon 07:39:03 PM 41.5019 -77.8872 99° East 456 525 31,000 -150 Descending New York Center
Mon 07:40:03 PM 41.4781 -77.7269 101° East 444 511 31,000  Level New York Center
Mon 07:41:04 PM 41.4561 -77.5639 100° East 444 511 31,000  Level New York Center
Mon 07:42:03 PM 41.4303 -77.3981 102° East 452 520 31,000  Level New York Center
Mon 07:43:03 PM 41.4042 -77.2294 102° East 457 526 31,000  Level New York Center
Mon 07:44:04 PM 41.3800 -77.0583 101° East 457 526 31,000 -793 Level New York Center
Mon 07:45:04 PM 41.3533 -76.8875 102° East 462 532 29,400 -1,736 Descending New York Center
Mon 07:46:05 PM 41.3206 -76.7158 104° East 467 537 27,500 -1,916 Descending New York Center
Mon 07:47:03 PM 41.2764 -76.5544 110° East 472 543 25,600 -2,150 Descending New York Center
Mon 07:48:05 PM 41.2342 -76.3936 109° East 461 531 23,200 -2,450 Descending New York Center
Mon 07:49:03 PM 41.1892 -76.2383 111° Southeast 456 525 20,700 -2,350 Descending New York Center
Mon 07:50:05 PM 41.1561 -76.1006 108° East 445 512 18,500 -2,000 Descending New York Center
Mon 07:51:06 PM 41.1147 -75.9486 110° East 410 472 16,600 -1,983 Descending New York Center
Mon 07:52:03 PM 41.0808 -75.8194 109° East 383 441 14,600 -1,678 Descending New York Center
Mon 07:53:04 PM 41.0481 -75.7069 111° Southeast 344 396 13,300 -843 Descending New York Center
Mon 07:54:04 PM 41.0267 -75.6228 109° East 295 339 12,900 -250 Descending New York Center
Mon 07:55:04 PM 40.9969 -75.5272 112° Southeast 256 295 12,800 -504 Descending New York Center
Mon 07:56:03 PM 40.9733 -75.4403 110° East 256 295 11,900 -908 Descending New York Center
Mon 07:57:03 PM 40.9497 -75.3564 110° East 251 289 11,000 -900 Descending New York Center
Mon 07:58:03 PM 40.9258 -75.2750 111° Southeast 244 281 10,100 -900 Descending New York Center
Mon 07:59:03 PM 40.9078 -75.1969 107° East 244 281 9,200 -1,000 Descending New York Center
Mon 08:00:03 PM 40.8797 -75.1100 113° Southeast 239 275 8,100 -595 Descending New York Center
Mon 08:01:04 PM 40.8350 -75.0853 157° South 187 215 8,000 -50 Descending New York Center
Mon 08:02:04 PM 40.8383 -75.1594 273° West 91 105 8,000  Level New York Center
Mon 08:03:03 PM 40.8606 -75.2322 292° West 164 189 8,000  Level New York Center
Mon 08:04:04 PM 40.8828 -75.3106 291° West 209 241 8,000  Level New York Center
Mon 08:05:04 PM 40.9267 -75.3575 321° Northwest 198 228 8,000 -50 Level New York Center
Mon 08:06:04 PM 40.9314 -75.2864 85° East 97 112 7,900 -50 Descending New York Center
Mon 08:07:05 PM 40.9094 -75.2081 110° East 140 161 7,900 50 Level New York Center
Mon 08:08:03 PM 40.8872 -75.1381 113° Southeast 213 245 8,000 51 Climbing New York Center
Mon 08:09:03 PM 40.8519 -75.0753 127° Southeast 224 258 8,000 -50 Level New York Center
Mon 08:10:03 PM 40.8369 -75.1458 254° West 97 112 7,900  Descending New York Center
Mon 08:11:04 PM 40.8569 -75.2183 290° West 136 157 8,000 50 Climbing New York Center
Mon 08:12:03 PM 40.8772 -75.2883 291° West 200 230 8,000 -353 Level New York Center
Mon 08:13:03 PM 40.9258 -75.2694 16° North 133 153 7,300 -500 Descending New York Center
Mon 08:14:03 PM 40.9106 -75.1833 103° East 121 139 7,000 -198 Descending New York Center
Mon 08:15:04 PM 40.8864 -75.0994 111° Southeast 187 215 6,900  Descending New York Center
Mon 08:16:04 PM 40.8600 -75.0211 114° Southeast 223 257 7,000 50 Climbing New York Center
Mon 08:17:04 PM 40.8375 -74.9539 114° Southeast 223 257 7,000  Level New York Center
Mon 08:18:04 PM 40.8322 -74.8658 95° East 216 249 7,000 -252 Level New York Center
Mon 08:19:03 PM 40.8411 -74.7867 82° East 219 252 6,500 -504 Descending New York Center
Mon 08:20:03 PM 40.8419 -74.7044 89° East 219 252 6,000 -248 Descending New York Center
Mon 08:21:04 PM 40.8442 -74.6333 88° East 208 239 6,000 57 Level New York Center
Mon 08:21:49 PM 40.8167 -74.5833 126° Southeast 210 242 6,100 57 Climbing New York TRACON
Mon 08:22:49 PM 40.7500 -74.5833 180° South 224 258 6,100 -368 Level New York TRACON
Mon 08:23:43 PM 40.7000 -74.5833 180° South 222 255 5,400 -500 Descending New York TRACON
Mon 08:24:49 PM 40.6333 -74.5833 180° South 221 254 5,100 -286 Descending New York TRACON
Mon 08:25:49 PM 40.5833 -74.5667 166° South 198 228 4,800 -500 Descending New York TRACON
Mon 08:26:49 PM 40.5333 -74.5500 166° South 180 207 4,100 -800 Descending New York TRACON
Mon 08:27:49 PM 40.4833 -74.5167 153° Southeast 177 204 3,200 -526 Descending New York TRACON
Mon 08:28:43 PM 40.4667 -74.4833 123° Southeast 163 188 3,100 -50 Descending New York TRACON
Mon 08:29:49 PM 40.4500 -74.4167 108° East 162 186 3,100  Level New York TRACON
Mon 08:30:49 PM 40.4500 -74.3667 90° East 158 182 3,100  Level New York TRACON
Mon 08:31:49 PM 40.4667 -74.3167 66° East 155 178 3,100  Level New York TRACON
Mon 08:32:49 PM 40.5167 -74.2833 27° Northeast 174 200 3,100 -100 Level New York TRACON
Mon 08:33:49 PM 40.5500 -74.2500 37° Northeast 175 201 2,900 -550 Descending New York TRACON
Mon 08:34:49 PM 40.6000 -74.2167 27° Northeast 171 197 2,000 -900 Descending New York TRACON
Mon 08:35:49 PM 40.6333 -74.2000 21° North 153 176 1,100 -900 Descending New York TRACON

Login

Don't have an account? Register now (free) for customized features, flight alerts, and more!